Terminal Aerodrome Forecast
Issued by NWS Corpus Christi, TX

Home | Current Version | Previous Version | Text Only | Print | Product List | Glossary On
Versions: 1 2 3 4 5 6 7 8 9 10 11 12 13 14 15 16 17 18 19 20 21 22 23 24
000
FTUS44 KCRP 041700 RRA
TAFVCT
TAF
KVCT 041741Z 0418/0518 17016G22KT P6SM SCT025 OVC035
     FM050000 14008KT 4SM -SHRA BR OVC007
     FM050230 36025G33KT P6SM SHRA BKN009 OVC015
     FM051400 36021G28KT P6SM BKN012 OVC028=

USA.gov is the U.S. government's official web portal to all federal, state and local government web resources and services.